Time;durP1;ratioP1;P1;durP2;ratioP2;P2;SDS_P1;SDS_P2;PMS_P1;PMS_P2;Temp;Humidity;BMP_temperature;BMP_pressure;BME280_temperature;BME280_humidity;BME280_pressure;Samples;Min_cycle;Max_cycle;Signal;HPM_P1;HPM_P2
2022/09/23 00:02:15;;;;;;;11.27;8.83;;;;;;;;;;4996345;28;20176;-69
2022/09/23 00:04:41;;;;;;;12.07;10.07;;;;;;;;;;4991139;28;20606;-70
2022/09/23 00:07:07;;;;;;;12.07;9.73;;;;;;;;;;4997927;28;20271;-68
2022/09/23 00:09:32;;;;;;;11.73;8.90;;;;;;;;;;4989543;28;20224;-69
2022/09/23 00:11:58;;;;;;;9.53;8.40;;;;;;;;;;4993601;28;20210;-69
2022/09/23 00:14:24;;;;;;;12.80;9.27;;;;;;;;;;4994995;28;20606;-69
2022/09/23 00:16:49;;;;;;;14.83;10.57;;;;;;;;;;4997779;28;20182;-69
2022/09/23 00:19:14;;;;;;;10.90;9.70;;;;;;;;;;4998381;28;20238;-69
2022/09/23 00:21:39;;;;;;;12.53;9.53;;;;;;;;;;4998458;28;20187;-69
2022/09/23 00:24:06;;;;;;;9.93;8.50;;;;;;;;;;5003070;28;20194;-69
2022/09/23 00:26:32;;;;;;;9.73;8.53;;;;;;;;;;4995697;28;20617;-69
2022/09/23 00:28:57;;;;;;;10.30;8.90;;;;;;;;;;4995688;28;20211;-68
2022/09/23 00:31:23;;;;;;;11.83;9.80;;;;;;;;;;5000922;28;20172;-68
2022/09/23 00:33:56;;;;;;;9.50;8.47;;;;;;;;;;5005284;28;20607;-69
2022/09/23 00:36:21;;;;;;;9.07;7.90;;;;;;;;;;4987268;28;20499;-69
2022/09/23 00:38:46;;;;;;;9.03;7.80;;;;;;;;;;5004783;28;20195;-69
2022/09/23 00:41:14;;;;;;;11.67;9.47;;;;;;;;;;4992790;28;20188;-69
2022/09/23 00:43:39;;;;;;;10.97;8.87;;;;;;;;;;4998253;28;20275;-69
2022/09/23 00:46:06;;;;;;;11.23;8.67;;;;;;;;;;4992569;28;20347;-69
2022/09/23 00:48:33;;;;;;;10.23;9.13;;;;;;;;;;4993625;28;20291;-68
2022/09/23 00:50:58;;;;;;;13.37;9.20;;;;;;;;;;4997141;28;20638;-69
2022/09/23 00:53:25;;;;;;;10.30;8.97;;;;;;;;;;4986243;28;20192;-69
2022/09/23 00:55:55;;;;;;;10.90;8.43;;;;;;;;;;4989475;28;20181;-69
2022/09/23 00:58:24;;;;;;;14.33;9.47;;;;;;;;;;4988569;28;20214;-69
2022/09/23 01:00:49;;;;;;;10.77;9.13;;;;;;;;;;4991464;28;20218;-69
2022/09/23 01:03:15;;;;;;;12.07;9.47;;;;;;;;;;4986540;28;20629;-69
2022/09/23 01:05:40;;;;;;;11.27;8.70;;;;;;;;;;4995223;28;20229;-69
2022/09/23 01:08:07;;;;;;;13.07;9.67;;;;;;;;;;4988576;28;20295;-69
2022/09/23 01:10:39;;;;;;;12.10;9.73;;;;;;;;;;4994862;28;20258;-69
2022/09/23 01:13:14;;;;;;;11.57;9.83;;;;;;;;;;4982941;28;20223;-69
2022/09/23 01:15:52;;;;;;;11.37;9.87;;;;;;;;;;4993635;28;20167;-68
2022/09/23 01:18:32;;;;;;;12.07;9.63;;;;;;;;;;4998013;28;20211;-68
2022/09/23 01:21:13;;;;;;;13.07;9.23;;;;;;;;;;5005370;28;20555;-69
2022/09/23 01:23:57;;;;;;;12.20;9.80;;;;;;;;;;5003329;28;20175;-69
2022/09/23 01:26:25;;;;;;;12.07;9.73;;;;;;;;;;4996039;28;20191;-69
2022/09/23 01:29:02;;;;;;;12.90;10.37;;;;;;;;;;4977594;28;20212;-68
2022/09/23 01:31:42;;;;;;;14.30;10.87;;;;;;;;;;4990096;28;20210;-69
2022/09/23 01:34:10;;;;;;;13.40;10.87;;;;;;;;;;5003688;28;20178;-69
2022/09/23 01:36:41;;;;;;;12.77;10.30;;;;;;;;;;4994212;28;20206;-69
2022/09/23 01:39:17;;;;;;;11.70;10.27;;;;;;;;;;4990630;28;20207;-68
2022/09/23 01:41:50;;;;;;;11.40;10.10;;;;;;;;;;4984367;28;20182;-68
2022/09/23 01:44:21;;;;;;;13.47;11.50;;;;;;;;;;4981643;28;20685;-69
2022/09/23 01:46:49;;;;;;;13.30;10.80;;;;;;;;;;4990302;28;20187;-71
2022/09/23 01:49:21;;;;;;;15.73;11.37;;;;;;;;;;5001493;28;20207;-68
2022/09/23 01:51:52;;;;;;;13.33;10.70;;;;;;;;;;4990665;28;20187;-68
2022/09/23 01:54:17;;;;;;;15.50;12.30;;;;;;;;;;4985740;28;20317;-70
2022/09/23 01:56:51;;;;;;;15.50;11.70;;;;;;;;;;4991569;28;20551;-68
2022/09/23 01:59:31;;;;;;;15.17;12.00;;;;;;;;;;4998582;28;20701;-68
2022/09/23 02:02:07;;;;;;;15.73;12.43;;;;;;;;;;4990791;28;20203;-71
2022/09/23 02:04:46;;;;;;;14.97;10.97;;;;;;;;;;4985840;28;20194;-68
2022/09/23 02:07:16;;;;;;;16.57;12.90;;;;;;;;;;5003763;28;20552;-68
2022/09/23 02:09:43;;;;;;;14.20;11.90;;;;;;;;;;4994061;28;20591;-68
2022/09/23 02:12:12;;;;;;;17.40;14.00;;;;;;;;;;4990605;28;20604;-69
2022/09/23 02:14:41;;;;;;;17.73;13.97;;;;;;;;;;5000163;28;20194;-68
2022/09/23 02:17:12;;;;;;;14.83;13.23;;;;;;;;;;4998273;28;20183;-68
2022/09/23 02:19:43;;;;;;;17.07;12.87;;;;;;;;;;4993462;28;20250;-69
2022/09/23 02:22:27;;;;;;;19.83;13.97;;;;;;;;;;4991541;28;20753;-71
2022/09/23 02:24:54;;;;;;;16.80;13.40;;;;;;;;;;4996857;28;20258;-68
2022/09/23 02:27:19;;;;;;;13.37;11.33;;;;;;;;;;5003295;28;20194;-71
2022/09/23 02:29:55;;;;;;;12.27;10.90;;;;;;;;;;5007553;28;20277;-69
2022/09/23 02:32:26;;;;;;;16.20;12.50;;;;;;;;;;4995115;28;20184;-69
2022/09/23 02:34:54;;;;;;;16.17;13.10;;;;;;;;;;5002434;28;20175;-69
2022/09/23 02:37:22;;;;;;;17.10;13.03;;;;;;;;;;4982680;28;20185;-69
2022/09/23 02:40:11;;;;;;;17.33;13.10;;;;;;;;;;4998381;28;20245;-69
2022/09/23 02:42:45;;;;;;;14.60;12.37;;;;;;;;;;5004204;28;20179;-69
2022/09/23 02:45:10;;;;;;;18.40;12.03;;;;;;;;;;4995541;28;20179;-69
2022/09/23 02:47:38;;;;;;;16.60;13.03;;;;;;;;;;4994344;28;20265;-69
2022/09/23 02:50:03;;;;;;;14.93;11.10;;;;;;;;;;5002976;28;20216;-68
2022/09/23 02:52:29;;;;;;;14.77;12.37;;;;;;;;;;4988096;28;20212;-69
2022/09/23 02:54:55;;;;;;;15.73;11.73;;;;;;;;;;4988769;28;20664;-69
2022/09/23 02:57:20;;;;;;;15.40;12.03;;;;;;;;;;4999842;28;20526;-69
2022/09/23 02:59:45;;;;;;;15.80;12.40;;;;;;;;;;4991204;28;20192;-69
2022/09/23 03:02:12;;;;;;;16.47;12.50;;;;;;;;;;4997898;28;20553;-69
2022/09/23 03:04:41;;;;;;;16.80;13.03;;;;;;;;;;5004069;28;20285;-69
2022/09/23 03:07:33;;;;;;;16.40;12.43;;;;;;;;;;5002738;28;20232;-69
2022/09/23 03:10:16;;;;;;;16.60;12.83;;;;;;;;;;4962222;28;20208;-68
2022/09/23 03:12:51;;;;;;;13.87;11.83;;;;;;;;;;5002252;28;20210;-69
2022/09/23 03:15:40;;;;;;;15.20;12.13;;;;;;;;;;4993613;28;20183;-69
2022/09/23 03:20:48;;;;;;;18.30;13.13;;;;;;;;;;4972133;28;20278;-74
2022/09/23 03:23:17;;;;;;;15.37;12.10;;;;;;;;;;4972475;28;20188;-73
2022/09/23 03:25:44;;;;;;;16.93;12.73;;;;;;;;;;4965882;28;20446;-74
2022/09/23 03:28:10;;;;;;;16.60;13.80;;;;;;;;;;4968712;28;20252;-74
2022/09/23 03:30:36;;;;;;;15.10;11.27;;;;;;;;;;4966218;28;20210;-74
2022/09/23 03:33:03;;;;;;;15.67;12.53;;;;;;;;;;4974158;28;20239;-73
2022/09/23 03:35:30;;;;;;;17.90;12.37;;;;;;;;;;4973329;28;20184;-73
2022/09/23 03:38:07;;;;;;;16.43;12.63;;;;;;;;;;4971841;28;20191;-73
2022/09/23 03:40:42;;;;;;;16.43;12.80;;;;;;;;;;4971140;28;20215;-73
2022/09/23 03:43:08;;;;;;;16.83;13.10;;;;;;;;;;4963284;28;20613;-73
2022/09/23 03:45:33;;;;;;;18.70;14.77;;;;;;;;;;4970557;28;20188;-73
2022/09/23 03:47:59;;;;;;;14.07;11.67;;;;;;;;;;4974180;28;20259;-74
2022/09/23 03:50:25;;;;;;;16.27;11.00;;;;;;;;;;4973426;28;20240;-74
2022/09/23 03:52:50;;;;;;;14.93;11.37;;;;;;;;;;4968898;28;20193;-73
2022/09/23 03:55:16;;;;;;;16.83;13.00;;;;;;;;;;4967437;28;20613;-74
2022/09/23 03:57:41;;;;;;;17.63;13.57;;;;;;;;;;4972280;28;20181;-74
2022/09/23 04:00:08;;;;;;;17.53;13.17;;;;;;;;;;4964348;28;20212;-73
2022/09/23 04:02:33;;;;;;;12.77;10.93;;;;;;;;;;4972910;28;20193;-73
2022/09/23 04:04:58;;;;;;;14.23;11.33;;;;;;;;;;4973383;28;20656;-74
2022/09/23 04:07:24;;;;;;;13.30;11.87;;;;;;;;;;4971757;28;20193;-73
2022/09/23 04:09:49;;;;;;;11.67;10.47;;;;;;;;;;4971325;28;20258;-74
2022/09/23 04:12:15;;;;;;;15.37;11.80;;;;;;;;;;4967965;28;20183;-73
2022/09/23 04:14:40;;;;;;;16.73;11.00;;;;;;;;;;4970183;28;20199;-74
2022/09/23 04:17:05;;;;;;;11.27;9.03;;;;;;;;;;4967662;28;20245;-73
2022/09/23 04:19:31;;;;;;;13.97;11.20;;;;;;;;;;4972270;28;20212;-73
2022/09/23 04:21:56;;;;;;;13.10;10.90;;;;;;;;;;4976394;28;20247;-74
2022/09/23 04:24:21;;;;;;;17.83;11.20;;;;;;;;;;4975351;28;20184;-73
2022/09/23 04:26:50;;;;;;;13.70;11.10;;;;;;;;;;4967939;28;20191;-73
2022/09/23 04:29:15;;;;;;;13.27;10.77;;;;;;;;;;4973405;28;20231;-73
2022/09/23 04:31:40;;;;;;;13.90;10.47;;;;;;;;;;4970431;28;20219;-75
2022/09/23 04:34:05;;;;;;;12.00;10.70;;;;;;;;;;4971203;28;20168;-76
2022/09/23 04:36:31;;;;;;;13.90;11.73;;;;;;;;;;4965783;28;20650;-75
2022/09/23 04:38:56;;;;;;;11.57;9.93;;;;;;;;;;4970200;28;20555;-74
2022/09/23 04:41:22;;;;;;;12.80;10.70;;;;;;;;;;4971423;28;20646;-74
2022/09/23 04:43:47;;;;;;;12.40;10.67;;;;;;;;;;4972272;28;20738;-74
2022/09/23 04:46:13;;;;;;;13.90;10.23;;;;;;;;;;4970653;28;20188;-74
2022/09/23 04:48:40;;;;;;;15.30;11.13;;;;;;;;;;4963832;28;20235;-74
2022/09/23 04:51:08;;;;;;;14.87;11.33;;;;;;;;;;4971045;28;20271;-74
2022/09/23 04:53:36;;;;;;;11.33;10.13;;;;;;;;;;4967158;28;20192;-74
2022/09/23 04:56:10;;;;;;;13.90;10.43;;;;;;;;;;4964017;28;20193;-73
2022/09/23 04:58:35;;;;;;;16.07;10.90;;;;;;;;;;4970928;28;20761;-74
2022/09/23 05:01:10;;;;;;;12.00;9.90;;;;;;;;;;4977617;28;20287;-74
2022/09/23 05:03:36;;;;;;;14.27;10.23;;;;;;;;;;4972796;28;20187;-74
2022/09/23 05:06:01;;;;;;;12.87;10.67;;;;;;;;;;4972914;28;20608;-75
2022/09/23 05:08:26;;;;;;;13.53;10.40;;;;;;;;;;4969063;28;20212;-74
2022/09/23 05:10:55;;;;;;;13.37;10.10;;;;;;;;;;4974687;28;20190;-75
2022/09/23 05:13:20;;;;;;;15.87;10.37;;;;;;;;;;4972577;28;20250;-75
2022/09/23 05:15:45;;;;;;;12.93;10.93;;;;;;;;;;4972021;28;20714;-74
2022/09/23 05:18:11;;;;;;;12.20;9.93;;;;;;;;;;4972655;28;20247;-74
2022/09/23 05:20:36;;;;;;;14.10;10.60;;;;;;;;;;4968340;28;20192;-74
2022/09/23 05:23:01;;;;;;;11.70;9.67;;;;;;;;;;4971182;28;20173;-75
2022/09/23 05:25:26;;;;;;;11.93;9.83;;;;;;;;;;4959675;28;20230;-75
2022/09/23 05:27:51;;;;;;;11.90;9.73;;;;;;;;;;4970359;28;20283;-74
2022/09/23 05:30:17;;;;;;;10.43;9.33;;;;;;;;;;4967485;28;20198;-74
2022/09/23 05:32:42;;;;;;;11.97;9.47;;;;;;;;;;4972284;28;20168;-74
2022/09/23 05:35:07;;;;;;;11.40;10.20;;;;;;;;;;4973190;28;20729;-74
2022/09/23 05:37:32;;;;;;;12.63;9.53;;;;;;;;;;4970110;28;20559;-73
2022/09/23 05:39:57;;;;;;;10.87;9.17;;;;;;;;;;4976009;28;20199;-74
2022/09/23 05:42:23;;;;;;;13.93;9.50;;;;;;;;;;4964321;28;20185;-74
2022/09/23 05:44:48;;;;;;;13.17;10.27;;;;;;;;;;4963536;28;20184;-74
2022/09/23 05:47:13;;;;;;;12.07;9.80;;;;;;;;;;4972254;28;20187;-74
2022/09/23 05:49:38;;;;;;;10.73;9.13;;;;;;;;;;4972088;28;20603;-74
2022/09/23 05:52:04;;;;;;;11.73;8.97;;;;;;;;;;4978719;28;20177;-74
2022/09/23 05:54:29;;;;;;;10.40;8.63;;;;;;;;;;4969709;28;20200;-74
2022/09/23 05:56:54;;;;;;;10.57;9.20;;;;;;;;;;4969894;28;20207;-74
2022/09/23 05:59:19;;;;;;;10.83;8.97;;;;;;;;;;4961793;28;20208;-74
2022/09/23 06:01:45;;;;;;;11.13;8.60;;;;;;;;;;4971975;28;20180;-74
2022/09/23 06:04:11;;;;;;;10.37;9.07;;;;;;;;;;4965423;28;20211;-72
2022/09/23 06:06:38;;;;;;;12.97;9.27;;;;;;;;;;4983091;28;20180;-72
2022/09/23 06:09:03;;;;;;;11.90;9.90;;;;;;;;;;4971653;28;20593;-72
2022/09/23 06:11:29;;;;;;;12.90;9.00;;;;;;;;;;4974000;28;20180;-72
2022/09/23 06:13:55;;;;;;;11.40;9.67;;;;;;;;;;4976214;28;20178;-72
2022/09/23 06:16:20;;;;;;;11.00;8.97;;;;;;;;;;4982138;28;20181;-72
2022/09/23 06:18:45;;;;;;;11.93;9.30;;;;;;;;;;4980208;28;20207;-75
2022/09/23 06:21:12;;;;;;;13.30;9.10;;;;;;;;;;4968938;28;20177;-73
2022/09/23 06:23:37;;;;;;;12.60;9.33;;;;;;;;;;4985895;28;20195;-73
2022/09/23 06:26:04;;;;;;;11.00;9.00;;;;;;;;;;4984546;28;20724;-72
2022/09/23 06:28:33;;;;;;;9.67;8.67;;;;;;;;;;4971944;28;20193;-74
2022/09/23 06:30:59;;;;;;;9.77;8.33;;;;;;;;;;4972348;28;20647;-72
2022/09/23 06:33:25;;;;;;;12.77;9.70;;;;;;;;;;4972147;28;20279;-72
2022/09/23 06:35:53;;;;;;;12.07;9.43;;;;;;;;;;4985344;28;20182;-73
2022/09/23 06:38:19;;;;;;;13.67;9.23;;;;;;;;;;4981430;28;20259;-73
2022/09/23 06:40:47;;;;;;;12.90;8.88;;;;;;;;;;4967904;28;20260;-74
2022/09/23 06:43:13;;;;;;;11.25;9.05;;;;;;;;;;4971722;28;20195;-73
2022/09/23 06:45:38;;;;;;;10.73;8.70;;;;;;;;;;4973628;28;20547;-74
2022/09/23 06:48:07;;;;;;;9.73;7.85;;;;;;;;;;4979564;28;20208;-73
2022/09/23 06:50:32;;;;;;;9.43;7.85;;;;;;;;;;4981176;28;20283;-73
2022/09/23 06:52:58;;;;;;;9.95;7.95;;;;;;;;;;4971851;28;20386;-74
2022/09/23 06:55:24;;;;;;;10.95;7.72;;;;;;;;;;4981063;28;20218;-74
2022/09/23 06:57:49;;;;;;;10.40;8.25;;;;;;;;;;4970040;28;20594;-74
2022/09/23 07:00:14;;;;;;;11.50;8.35;;;;;;;;;;4971323;28;20220;-74
2022/09/23 07:02:40;;;;;;;12.23;7.90;;;;;;;;;;4974491;28;20191;-74
2022/09/23 07:05:06;;;;;;;11.95;8.95;;;;;;;;;;4978118;28;20216;-73
2022/09/23 07:07:31;;;;;;;8.77;7.45;;;;;;;;;;4989384;28;20262;-73
2022/09/23 07:09:57;;;;;;;8.75;7.32;;;;;;;;;;4974644;28;20291;-73
2022/09/23 07:12:22;;;;;;;8.93;7.85;;;;;;;;;;4972929;28;20181;-74
2022/09/23 07:14:47;;;;;;;8.00;7.20;;;;;;;;;;4977434;28;20223;-73
2022/09/23 07:17:12;;;;;;;9.13;8.02;;;;;;;;;;4966505;28;20188;-74
2022/09/23 07:19:38;;;;;;;8.65;7.03;;;;;;;;;;4975990;28;20211;-73
2022/09/23 07:22:04;;;;;;;8.05;7.10;;;;;;;;;;4980836;28;20180;-73
2022/09/23 07:24:29;;;;;;;9.38;7.40;;;;;;;;;;4974744;28;20522;-72
2022/09/23 07:26:54;;;;;;;8.50;7.50;;;;;;;;;;4962660;28;20191;-73
2022/09/23 07:29:19;;;;;;;8.00;7.20;;;;;;;;;;4969548;28;20212;-73
2022/09/23 07:31:45;;;;;;;8.35;7.47;;;;;;;;;;4980645;28;20177;-72
2022/09/23 07:34:10;;;;;;;10.45;7.97;;;;;;;;;;4969389;28;20236;-73
2022/09/23 07:36:39;;;;;;;9.77;6.97;;;;;;;;;;4973658;28;20179;-73
2022/09/23 07:39:04;;;;;;;8.68;7.75;;;;;;;;;;4972920;28;20251;-73
2022/09/23 07:41:30;;;;;;;8.57;7.28;;;;;;;;;;4984168;28;20653;-73
2022/09/23 07:43:57;;;;;;;10.90;7.57;;;;;;;;;;4970653;28;20181;-73
2022/09/23 07:46:23;;;;;;;7.07;6.20;;;;;;;;;;4969995;28;20227;-73
2022/09/23 07:48:48;;;;;;;7.18;6.05;;;;;;;;;;4974146;28;20247;-73
2022/09/23 07:51:22;;;;;;;11.13;6.68;;;;;;;;;;4965496;28;20184;-74
2022/09/23 07:53:48;;;;;;;7.90;6.28;;;;;;;;;;4971444;28;20330;-72
2022/09/23 07:56:13;;;;;;;7.97;6.88;;;;;;;;;;4966471;28;20709;-72
2022/09/23 07:58:38;;;;;;;10.15;6.65;;;;;;;;;;4980178;28;20262;-72
2022/09/23 08:01:04;;;;;;;9.30;6.88;;;;;;;;;;4977927;28;20180;-71
2022/09/23 08:03:30;;;;;;;8.23;6.57;;;;;;;;;;4983904;28;20561;-72
2022/09/23 08:06:02;;;;;;;6.15;5.30;;;;;;;;;;4972795;28;20176;-74
2022/09/23 08:08:27;;;;;;;8.38;5.95;;;;;;;;;;4970607;28;20214;-72
2022/09/23 08:10:58;;;;;;;8.32;6.07;;;;;;;;;;4975655;28;20423;-72
2022/09/23 08:13:24;;;;;;;6.95;5.90;;;;;;;;;;4977664;28;20188;-71
2022/09/23 08:15:49;;;;;;;8.75;6.82;;;;;;;;;;4980072;28;20172;-71
2022/09/23 08:18:14;;;;;;;10.10;6.57;;;;;;;;;;4979571;28;20239;-71
2022/09/23 08:20:46;;;;;;;8.20;5.90;;;;;;;;;;4973070;28;20195;-71
2022/09/23 08:23:13;;;;;;;6.40;5.75;;;;;;;;;;4986800;28;20176;-72
2022/09/23 08:25:38;;;;;;;6.53;5.80;;;;;;;;;;4975267;28;20190;-72
2022/09/23 08:28:04;;;;;;;7.43;6.03;;;;;;;;;;4973375;28;20278;-72
2022/09/23 08:30:29;;;;;;;7.40;5.93;;;;;;;;;;4972918;28;20204;-72
2022/09/23 08:32:54;;;;;;;7.72;5.68;;;;;;;;;;4967001;28;20168;-72
2022/09/23 08:35:20;;;;;;;7.07;6.28;;;;;;;;;;4970028;28;20640;-73
2022/09/23 08:37:45;;;;;;;7.53;6.22;;;;;;;;;;4968098;28;20647;-72
2022/09/23 08:40:10;;;;;;;7.40;6.70;;;;;;;;;;4967933;28;20200;-72
2022/09/23 08:42:36;;;;;;;7.13;6.35;;;;;;;;;;4973069;28;20653;-72
2022/09/23 08:45:04;;;;;;;9.73;6.80;;;;;;;;;;4970386;28;20888;-72
2022/09/23 08:47:33;;;;;;;7.82;6.30;;;;;;;;;;4966603;28;20251;-72
2022/09/23 08:50:05;;;;;;;6.65;5.97;;;;;;;;;;4985637;28;20191;-72
2022/09/23 08:52:38;;;;;;;9.57;6.13;;;;;;;;;;4973624;28;20259;-72
2022/09/23 08:55:04;;;;;;;7.95;5.63;;;;;;;;;;4965921;28;20230;-73
2022/09/23 08:57:39;;;;;;;10.30;6.85;;;;;;;;;;4972138;28;20183;-72
2022/09/23 09:00:04;;;;;;;10.75;6.18;;;;;;;;;;4965861;28;20732;-72
2022/09/23 09:02:32;;;;;;;8.82;6.97;;;;;;;;;;4973207;28;20188;-72
2022/09/23 09:05:01;;;;;;;7.22;5.82;;;;;;;;;;4972760;28;20295;-72
2022/09/23 09:07:28;;;;;;;5.97;5.05;;;;;;;;;;4973061;28;20168;-72
2022/09/23 09:10:13;;;;;;;7.43;5.50;;;;;;;;;;4972515;28;20248;-72
2022/09/23 09:12:41;;;;;;;8.57;5.18;;;;;;;;;;4972709;28;20212;-72
2022/09/23 09:15:12;;;;;;;10.15;5.70;;;;;;;;;;4967308;28;20184;-73
2022/09/23 09:17:47;;;;;;;8.02;5.70;;;;;;;;;;4969397;28;20184;-72
2022/09/23 09:20:22;;;;;;;7.53;6.05;;;;;;;;;;4968558;28;20212;-72
2022/09/23 09:22:58;;;;;;;8.27;6.45;;;;;;;;;;4963423;28;20178;-73
2022/09/23 09:25:23;;;;;;;10.05;6.40;;;;;;;;;;4972015;28;20744;-72
2022/09/23 09:27:49;;;;;;;10.35;7.03;;;;;;;;;;4969937;28;20238;-72
2022/09/23 09:30:15;;;;;;;9.15;6.00;;;;;;;;;;4973632;28;20275;-72
2022/09/23 09:32:46;;;;;;;10.85;6.95;;;;;;;;;;4985221;28;20663;-72
2022/09/23 09:35:35;;;;;;;10.15;7.65;;;;;;;;;;4979678;28;20557;-72
2022/09/23 09:38:01;;;;;;;10.15;6.95;;;;;;;;;;4970714;28;20555;-72
2022/09/23 09:40:26;;;;;;;8.38;6.03;;;;;;;;;;4972532;28;20211;-72
2022/09/23 09:42:51;;;;;;;7.00;5.38;;;;;;;;;;4987214;28;20184;-72
2022/09/23 09:45:18;;;;;;;6.97;4.93;;;;;;;;;;4966434;28;20243;-72
2022/09/23 09:47:46;;;;;;;9.98;6.30;;;;;;;;;;4973684;28;20530;-72
2022/09/23 09:50:17;;;;;;;7.18;5.07;;;;;;;;;;4981775;28;20208;-71
2022/09/23 09:52:43;;;;;;;11.07;5.90;;;;;;;;;;4969854;28;20226;-72
2022/09/23 09:55:11;;;;;;;9.43;5.70;;;;;;;;;;4967060;28;20185;-71
2022/09/23 09:57:38;;;;;;;8.13;5.45;;;;;;;;;;4965728;28;20604;-71
2022/09/23 10:00:24;;;;;;;10.93;5.50;;;;;;;;;;4969774;28;20630;-71
2022/09/23 10:02:52;;;;;;;10.80;6.10;;;;;;;;;;4963338;28;20177;-72
2022/09/23 10:05:25;;;;;;;7.57;5.43;;;;;;;;;;4969136;28;20177;-72
2022/09/23 10:07:51;;;;;;;6.72;5.50;;;;;;;;;;4974111;28;20176;-71
2022/09/23 10:10:23;;;;;;;5.85;5.05;;;;;;;;;;4976469;28;20219;-71
2022/09/23 10:12:48;;;;;;;15.55;6.45;;;;;;;;;;4965159;28;20649;-72
2022/09/23 10:15:39;;;;;;;10.43;5.93;;;;;;;;;;4971967;28;20208;-72
2022/09/23 10:18:18;;;;;;;8.60;5.47;;;;;;;;;;4977868;28;20190;-72
2022/09/23 10:20:45;;;;;;;6.25;5.10;;;;;;;;;;4968179;28;20215;-72
2022/09/23 10:23:14;;;;;;;8.40;5.80;;;;;;;;;;4972205;28;20206;-72
2022/09/23 10:25:40;;;;;;;9.35;5.47;;;;;;;;;;4971733;28;20215;-71
2022/09/23 10:28:24;;;;;;;8.18;5.80;;;;;;;;;;4974139;28;20635;-72
2022/09/23 10:31:03;;;;;;;7.82;5.60;;;;;;;;;;4963138;28;20180;-72
2022/09/23 10:33:30;;;;;;;8.25;5.50;;;;;;;;;;4971221;28;20259;-72
2022/09/23 10:35:56;;;;;;;9.35;6.53;;;;;;;;;;4971233;28;20191;-71
2022/09/23 10:38:21;;;;;;;6.60;5.63;;;;;;;;;;4957120;28;20180;-73
2022/09/23 10:47:03;;;;;;;6.72;4.95;;;;;;;;;;4945205;28;20201;-72
2022/09/23 10:49:29;;;;;;;6.80;5.60;;;;;;;;;;4972640;28;20208;-72
2022/09/23 10:51:55;;;;;;;5.55;4.70;;;;;;;;;;4967826;28;20263;-71
2022/09/23 10:54:27;;;;;;;7.07;4.47;;;;;;;;;;4970787;28;20311;-71
2022/09/23 10:57:36;;;;;;;6.55;4.90;;;;;;;;;;4971679;28;20430;-72
2022/09/23 10:59:56;;;;;;;8.90;5.22;;;;;;;;;;4966143;28;20236;-72
2022/09/23 11:02:37;;;;;;;5.83;4.97;;;;;;;;;;4973775;28;20685;-72
2022/09/23 11:05:20;;;;;;;10.45;5.15;;;;;;;;;;4971625;28;20430;-72
2022/09/23 11:07:45;;;;;;;7.78;5.40;;;;;;;;;;4967722;28;20189;-72
2022/09/23 11:10:24;;;;;;;5.83;5.03;;;;;;;;;;4967538;28;20259;-73
2022/09/23 11:13:15;;;;;;;8.10;4.53;;;;;;;;;;4970486;28;20453;-71
2022/09/23 11:15:50;;;;;;;4.65;4.22;;;;;;;;;;4977940;28;20563;-72
2022/09/23 11:18:15;;;;;;;5.22;4.65;;;;;;;;;;4981307;28;20176;-72
2022/09/23 11:21:10;;;;;;;4.67;3.67;;;;;;;;;;4976334;28;20214;-72
2022/09/23 11:23:43;;;;;;;8.05;4.15;;;;;;;;;;4939597;28;20495;-72
2022/09/23 11:26:15;;;;;;;5.00;4.50;;;;;;;;;;4974048;28;20187;-72
2022/09/23 11:28:49;;;;;;;5.63;4.80;;;;;;;;;;4969291;28;20897;-71
2022/09/23 11:31:21;;;;;;;5.88;4.10;;;;;;;;;;4972786;28;20262;-71
2022/09/23 11:33:51;;;;;;;5.47;4.00;;;;;;;;;;4965803;28;20180;-70
2022/09/23 11:36:16;;;;;;;4.30;3.90;;;;;;;;;;4974542;28;20176;-72
2022/09/23 11:38:45;;;;;;;5.53;3.63;;;;;;;;;;4972203;28;20705;-71
2022/09/23 11:41:30;;;;;;;4.90;3.35;;;;;;;;;;4969811;28;21023;-72
2022/09/23 11:44:00;;;;;;;5.82;3.72;;;;;;;;;;4966224;28;20734;-72
2022/09/23 11:46:43;;;;;;;4.40;3.20;;;;;;;;;;4964854;28;20760;-71
2022/09/23 11:49:15;;;;;;;3.70;3.33;;;;;;;;;;4967604;28;20227;-71
2022/09/23 11:51:45;;;;;;;4.95;3.63;;;;;;;;;;4974986;28;20271;-71
2022/09/23 11:54:15;;;;;;;4.70;3.65;;;;;;;;;;4985232;28;20184;-72
2022/09/23 11:56:44;;;;;;;4.93;3.63;;;;;;;;;;4972878;28;20199;-70
2022/09/23 11:59:29;;;;;;;6.53;4.40;;;;;;;;;;4973364;28;20199;-71
2022/09/23 12:01:57;;;;;;;5.93;4.10;;;;;;;;;;4981060;28;20173;-71
2022/09/23 12:04:39;;;;;;;6.45;4.00;;;;;;;;;;4968692;28;20200;-71
2022/09/23 12:07:06;;;;;;;6.03;4.40;;;;;;;;;;4973346;28;20190;-71
2022/09/23 12:09:42;;;;;;;7.40;4.80;;;;;;;;;;4973413;28;20629;-71
2022/09/23 12:12:20;;;;;;;5.35;4.85;;;;;;;;;;4971941;28;20183;-71
2022/09/23 12:15:10;;;;;;;5.82;5.22;;;;;;;;;;4966568;28;20646;-72
2022/09/23 12:17:44;;;;;;;7.75;4.88;;;;;;;;;;4971314;28;20291;-71
2022/09/23 12:20:09;;;;;;;6.47;5.03;;;;;;;;;;4968670;28;20226;-72
2022/09/23 12:22:55;;;;;;;5.57;4.63;;;;;;;;;;4967156;28;20172;-72
2022/09/23 12:25:38;;;;;;;7.50;5.38;;;;;;;;;;4967413;28;20422;-72
2022/09/23 12:28:11;;;;;;;8.38;5.35;;;;;;;;;;4968056;28;20196;-71
2022/09/23 12:30:36;;;;;;;7.80;5.07;;;;;;;;;;4979468;28;20548;-72
2022/09/23 12:33:21;;;;;;;6.28;5.10;;;;;;;;;;4973840;28;20177;-71
2022/09/23 12:35:46;;;;;;;7.57;5.45;;;;;;;;;;4959475;28;20187;-71
2022/09/23 12:38:24;;;;;;;7.55;5.55;;;;;;;;;;4966971;28;20263;-72
2022/09/23 12:40:51;;;;;;;5.22;4.72;;;;;;;;;;4971161;28;20194;-72
2022/09/23 12:43:28;;;;;;;7.13;5.20;;;;;;;;;;4967033;28;20194;-71
2022/09/23 12:45:53;;;;;;;5.47;4.78;;;;;;;;;;4969475;28;20179;-71
2022/09/23 12:48:18;;;;;;;7.47;5.40;;;;;;;;;;4970909;28;20724;-71
2022/09/23 12:50:50;;;;;;;7.50;5.70;;;;;;;;;;4969739;28;20207;-71
2022/09/23 12:53:33;;;;;;;8.35;6.05;;;;;;;;;;4963115;28;20442;-71
2022/09/23 12:56:00;;;;;;;9.32;6.18;;;;;;;;;;4971079;28;20168;-71
2022/09/23 12:58:38;;;;;;;8.35;6.28;;;;;;;;;;4967944;28;20188;-72
2022/09/23 13:01:07;;;;;;;6.40;5.75;;;;;;;;;;4964306;28;20212;-72
2022/09/23 13:09:01;;;;;;;6.25;5.57;;;;;;;;;;4967821;28;20211;-72
2022/09/23 13:11:30;;;;;;;9.88;6.40;;;;;;;;;;4967784;28;20191;-71
2022/09/23 13:13:59;;;;;;;6.07;5.47;;;;;;;;;;4969841;28;20172;-72
2022/09/23 13:16:28;;;;;;;8.63;6.32;;;;;;;;;;4967569;28;20184;-72
2022/09/23 13:18:56;;;;;;;9.73;6.43;;;;;;;;;;4965574;28;20212;-71
2022/09/23 13:21:54;;;;;;;8.10;5.90;;;;;;;;;;4966401;28;20219;-71
2022/09/23 13:24:22;;;;;;;7.18;6.47;;;;;;;;;;4950438;28;20271;-71
2022/09/23 13:26:52;;;;;;;7.38;6.07;;;;;;;;;;4969700;28;20602;-72
2022/09/23 13:29:46;;;;;;;7.38;6.53;;;;;;;;;;4965137;28;20654;-72
2022/09/23 13:32:13;;;;;;;7.60;6.00;;;;;;;;;;4960573;28;20310;-71
2022/09/23 13:34:40;;;;;;;9.73;7.35;;;;;;;;;;4966490;28;20181;-72
2022/09/23 13:37:19;;;;;;;8.15;6.53;;;;;;;;;;4968031;28;20184;-71
2022/09/23 13:39:44;;;;;;;9.60;7.00;;;;;;;;;;4969127;28;20200;-72
2022/09/23 13:42:15;;;;;;;9.03;6.27;;;;;;;;;;4970555;28;20192;-71
2022/09/23 13:44:40;;;;;;;12.00;6.75;;;;;;;;;;4969878;28;20426;-72
2022/09/23 13:47:11;;;;;;;9.90;6.40;;;;;;;;;;4966982;28;20555;-72
2022/09/23 13:49:36;;;;;;;7.18;5.70;;;;;;;;;;4964947;28;20721;-72
2022/09/23 13:52:02;;;;;;;11.35;6.20;;;;;;;;;;4966192;28;20198;-72
2022/09/23 13:54:45;;;;;;;7.40;6.15;;;;;;;;;;4968999;28;20381;-72
2022/09/23 13:57:42;;;;;;;7.68;5.65;;;;;;;;;;4965308;28;20674;-72
2022/09/23 14:00:19;;;;;;;7.30;5.75;;;;;;;;;;4924154;28;20244;-72
2022/09/23 14:02:45;;;;;;;8.07;6.53;;;;;;;;;;4956133;28;20176;-71
2022/09/23 14:05:12;;;;;;;8.80;6.15;;;;;;;;;;4970182;28;20254;-72
2022/09/23 14:07:37;;;;;;;7.95;5.53;;;;;;;;;;4966696;28;20180;-72
2022/09/23 14:10:04;;;;;;;7.75;4.53;;;;;;;;;;4963741;28;21097;-71
2022/09/23 14:12:29;;;;;;;7.35;5.72;;;;;;;;;;4962128;28;20634;-71
2022/09/23 14:14:56;;;;;;;8.93;5.63;;;;;;;;;;4968627;28;20188;-71
2022/09/23 14:17:24;;;;;;;9.43;5.85;;;;;;;;;;4970861;28;20658;-72
2022/09/23 14:19:50;;;;;;;10.32;5.80;;;;;;;;;;4969526;28;20277;-72
2022/09/23 14:22:22;;;;;;;6.70;6.00;;;;;;;;;;4973854;28;20670;-72
2022/09/23 14:24:47;;;;;;;6.40;5.10;;;;;;;;;;4968968;28;20168;-72
2022/09/23 14:27:17;;;;;;;6.80;4.47;;;;;;;;;;4974940;28;20203;-72
2022/09/23 14:29:44;;;;;;;5.30;3.95;;;;;;;;;;4971920;28;20204;-73
2022/09/23 14:32:09;;;;;;;4.53;4.03;;;;;;;;;;4970803;28;20176;-72
2022/09/23 14:34:39;;;;;;;5.65;4.10;;;;;;;;;;4968786;28;20188;-72
2022/09/23 14:39:54;;;;;;;8.05;5.22;;;;;;;;;;4975879;28;20292;-72
2022/09/23 14:42:19;;;;;;;11.20;6.28;;;;;;;;;;4974252;28;20267;-73
2022/09/23 14:44:47;;;;;;;7.18;5.40;;;;;;;;;;4968703;28;20589;-71
2022/09/23 14:47:13;;;;;;;5.45;4.53;;;;;;;;;;4972936;28;20177;-71
2022/09/23 14:50:35;;;;;;;5.28;4.28;;;;;;;;;;4973198;28;20215;-72
2022/09/23 14:52:23;;;;;;;4.13;3.72;;;;;;;;;;4968253;28;20180;-71
2022/09/23 14:54:49;;;;;;;5.90;4.97;;;;;;;;;;4970268;28;20176;-71
2022/09/23 14:57:21;;;;;;;9.95;4.47;;;;;;;;;;4969621;28;20418;-72
2022/09/23 14:59:49;;;;;;;8.60;4.28;;;;;;;;;;4968245;28;20814;-71
2022/09/23 15:02:30;;;;;;;5.00;4.50;;;;;;;;;;4965817;28;20722;-72
2022/09/23 15:05:07;;;;;;;6.78;3.72;;;;;;;;;;4974704;28;20184;-72